Disclaimer

Please do not use the information listed here in-flight or in-navigation, as they are not provided to us by the airports but are provided by volunteers, so they might be outdated.

Search


Regions


Airport information page

Radio informations:
Tower (TWR) - 118.35 MHz
Automatic Terminal Information Service (ATIS) - 124.4 MHz
Approach (APP) - 119.2 MHz

Airport informations:
Latitude: 32° 41' 52.40" N
Longitude: 016° 46' 28.03" W
Elevation: 192 feet - 59 meters
Operating hours: 24 hour operations
Operating agency: Civil government, landing fees and diplomatic clearance may be required
Timezone: UTC 0(+1DT) - Last Sunday in March to last Sunday in October
Fuel: Jet A1, without icing nhibitor.

100/130 MIL Spec, low lead, aviation gasoline (BLUE)

Runway information:
05/23 - 9110 x 148 feet< - >2777 x 45 meters

Recent METARs:
LPMA 202230Z 35016KT 9999 BKN015 16/12 Q1015
LPMA 202300Z 36015KT 9999 BKN015 17/12 Q1016
LPMA 202330Z 35017KT 9999 BKN015 16/12 Q1015

Airport on the map: